Time;durP1;ratioP1;P1;durP2;ratioP2;P2;SDS_P1;SDS_P2;PMS_P1;PMS_P2;Temp;Humidity;BMP_temperature;BMP_pressure;BME280_temperature;BME280_humidity;BME280_pressure;Samples;Min_cycle;Max_cycle;Signal;HPM_P1;HPM_P2
2023/11/16 00:00:52;;;;;;;2.00;1.90;;;7.20;99.90;;;;;;5101947;28;20197;-74
2023/11/16 00:03:20;;;;;;;1.95;1.85;;;7.20;99.90;;;;;;5100217;28;20220;-74
2023/11/16 00:05:48;;;;;;;1.80;1.70;;;7.20;99.90;;;;;;5100827;28;20200;-75
2023/11/16 00:08:16;;;;;;;1.83;1.80;;;7.20;99.90;;;;;;5100472;28;20333;-75
2023/11/16 00:10:43;;;;;;;1.77;1.67;;;7.20;99.90;;;;;;5102356;28;20582;-74
2023/11/16 00:13:10;;;;;;;2.00;1.90;;;7.20;99.90;;;;;;5100348;28;20220;-74
2023/11/16 00:15:39;;;;;;;1.85;1.75;;;7.20;99.90;;;;;;5104015;28;20253;-74
2023/11/16 00:18:06;;;;;;;1.70;1.60;;;7.20;99.90;;;;;;5102307;28;20289;-74
2023/11/16 00:20:35;;;;;;;1.90;1.80;;;7.20;99.90;;;;;;5102535;28;20220;-75
2023/11/16 00:23:03;;;;;;;1.90;1.80;;;7.30;99.90;;;;;;5101594;28;20574;-75
2023/11/16 00:25:31;;;;;;;1.70;1.70;;;7.30;99.90;;;;;;5102029;28;20293;-74
2023/11/16 00:27:59;;;;;;;1.63;1.63;;;7.20;99.90;;;;;;5103664;28;20197;-75
2023/11/16 00:30:26;;;;;;;1.92;1.83;;;7.20;99.90;;;;;;5102383;28;20205;-74
2023/11/16 00:32:54;;;;;;;1.70;1.60;;;7.20;99.90;;;;;;5098989;28;20212;-74
2023/11/16 00:35:22;;;;;;;1.60;1.60;;;7.10;99.90;;;;;;5101570;28;20873;-74
2023/11/16 00:37:50;;;;;;;1.63;1.63;;;7.10;99.90;;;;;;5097778;28;20268;-74
2023/11/16 00:40:18;;;;;;;1.75;1.73;;;7.10;99.90;;;;;;5100665;28;20205;-75
2023/11/16 00:42:45;;;;;;;2.00;1.90;;;7.10;99.90;;;;;;5097770;28;20713;-75
2023/11/16 00:45:12;;;;;;;1.60;1.60;;;7.10;99.90;;;;;;5101008;28;20262;-74
2023/11/16 00:47:39;;;;;;;1.80;1.70;;;7.10;99.90;;;;;;5099347;28;20197;-77
2023/11/16 00:50:09;;;;;;;1.80;1.80;;;7.10;99.90;;;;;;5098442;28;22029;-75
2023/11/16 00:52:36;;;;;;;2.00;1.90;;;7.10;99.90;;;;;;5101197;27;20736;-75
2023/11/16 00:55:04;;;;;;;1.95;1.85;;;7.00;99.90;;;;;;5103987;27;20254;-76
2023/11/16 00:57:31;;;;;;;2.00;1.90;;;7.10;99.90;;;;;;5103971;28;20197;-74
2023/11/16 00:59:58;;;;;;;2.05;1.95;;;7.00;99.90;;;;;;5104452;27;20193;-74
2023/11/16 01:02:26;;;;;;;1.98;1.90;;;7.00;99.90;;;;;;5101129;27;20233;-75
2023/11/16 01:04:53;;;;;;;1.95;1.85;;;7.00;99.90;;;;;;5106367;27;20275;-74
2023/11/16 01:07:21;;;;;;;2.00;1.90;;;7.00;99.90;;;;;;5102218;27;20205;-76
2023/11/16 01:09:48;;;;;;;2.20;2.05;;;7.00;99.90;;;;;;5105816;28;20932;-74
2023/11/16 01:12:16;;;;;;;1.70;1.70;;;7.00;99.90;;;;;;5104937;27;20224;-74
2023/11/16 01:14:44;;;;;;;1.60;1.60;;;7.00;99.90;;;;;;5102783;27;20216;-75
2023/11/16 01:17:18;;;;;;;1.90;1.80;;;7.00;99.90;;;;;;5096822;27;20212;-74
2023/11/16 01:19:46;;;;;;;1.60;1.60;;;7.00;99.90;;;;;;5104384;27;20241;-75
2023/11/16 01:22:15;;;;;;;1.80;1.80;;;7.00;99.90;;;;;;5102149;27;20227;-74
2023/11/16 01:24:45;;;;;;;1.95;1.85;;;7.00;99.90;;;;;;5097493;27;20280;-75
2023/11/16 01:27:19;;;;;;;1.77;1.73;;;7.00;99.90;;;;;;5100984;27;20284;-75
2023/11/16 01:29:46;;;;;;;1.80;1.70;;;7.00;99.90;;;;;;5099561;28;20217;-75
2023/11/16 01:32:14;;;;;;;1.70;1.70;;;7.00;99.90;;;;;;5093800;28;20229;-74
2023/11/16 01:34:42;;;;;;;1.80;1.80;;;7.00;99.90;;;;;;5102677;27;20197;-74
2023/11/16 01:37:10;;;;;;;2.00;1.90;;;7.00;99.90;;;;;;5097372;27;20290;-75
2023/11/16 01:39:38;;;;;;;1.98;1.88;;;7.00;99.90;;;;;;5099294;27;20194;-75
2023/11/16 01:42:09;;;;;;;1.88;1.80;;;7.00;99.90;;;;;;5101207;27;20220;-75
2023/11/16 01:44:36;;;;;;;2.10;2.00;;;7.00;99.90;;;;;;5101034;27;20201;-74
2023/11/16 01:47:07;;;;;;;1.90;1.80;;;6.90;99.90;;;;;;5100793;27;20201;-74
2023/11/16 01:49:35;;;;;;;1.92;1.83;;;6.90;99.90;;;;;;5103133;27;20616;-75
2023/11/16 01:52:02;;;;;;;1.85;1.75;;;6.90;99.90;;;;;;5101656;27;20216;-74
2023/11/16 01:54:30;;;;;;;2.08;1.98;;;6.90;99.90;;;;;;5102498;27;20205;-75
2023/11/16 01:56:58;;;;;;;1.83;1.83;;;6.90;99.90;;;;;;5106173;27;20806;-74
2023/11/16 01:59:29;;;;;;;1.80;1.80;;;6.90;99.90;;;;;;5098546;27;20940;-74
2023/11/16 02:01:57;;;;;;;2.00;1.90;;;6.90;99.90;;;;;;5101177;27;20282;-76
2023/11/16 02:04:24;;;;;;;1.88;1.77;;;6.90;99.90;;;;;;5098466;27;20209;-74
2023/11/16 02:06:51;;;;;;;1.80;1.80;;;6.90;99.90;;;;;;5099297;27;20292;-74
2023/11/16 02:09:20;;;;;;;1.80;1.70;;;6.90;99.90;;;;;;5100097;27;20685;-74
2023/11/16 02:11:47;;;;;;;1.80;1.80;;;6.90;99.90;;;;;;5103324;27;20240;-74
2023/11/16 02:14:13;;;;;;;1.90;1.80;;;6.80;99.90;;;;;;5103378;27;20663;-74
2023/11/16 02:16:41;;;;;;;1.70;1.70;;;6.80;99.90;;;;;;5103251;27;20196;-74
2023/11/16 02:19:21;;;;;;;1.90;1.80;;;6.70;99.90;;;;;;5099936;27;20234;-74
2023/11/16 02:21:49;;;;;;;1.65;1.65;;;6.70;99.90;;;;;;5101703;27;20224;-76
2023/11/16 02:24:17;;;;;;;1.65;1.65;;;6.60;99.90;;;;;;5100211;28;20254;-74
2023/11/16 02:26:44;;;;;;;1.65;1.65;;;6.60;99.90;;;;;;5101044;27;20272;-74
2023/11/16 02:29:11;;;;;;;1.95;1.85;;;6.60;99.90;;;;;;5101035;27;20221;-75
2023/11/16 02:31:38;;;;;;;1.60;1.60;;;6.60;99.90;;;;;;5102194;27;20220;-75
2023/11/16 02:34:05;;;;;;;1.58;1.58;;;6.60;99.90;;;;;;5099558;27;20208;-74
2023/11/16 02:36:32;;;;;;;1.70;1.60;;;6.50;99.90;;;;;;5099603;27;20208;-74
2023/11/16 02:39:01;;;;;;;2.58;1.73;;;6.50;99.90;;;;;;5100748;27;20872;-76
2023/11/16 02:41:29;;;;;;;2.00;1.90;;;6.50;99.90;;;;;;5094260;27;20308;-75
2023/11/16 02:43:56;;;;;;;2.20;2.10;;;6.50;99.90;;;;;;5103542;27;20200;-75
2023/11/16 02:46:23;;;;;;;1.95;1.85;;;6.40;99.90;;;;;;5099347;28;20330;-75
2023/11/16 02:48:50;;;;;;;2.10;2.00;;;6.40;99.90;;;;;;5104103;27;20204;-75
2023/11/16 02:51:19;;;;;;;1.83;1.73;;;6.40;99.90;;;;;;5097368;28;20286;-74
2023/11/16 02:53:46;;;;;;;1.98;1.88;;;6.40;99.90;;;;;;5100815;27;20209;-75
2023/11/16 02:56:14;;;;;;;1.90;1.80;;;6.30;99.90;;;;;;5099741;27;20250;-75
2023/11/16 02:58:43;;;;;;;2.03;1.92;;;6.30;99.90;;;;;;5102310;27;20262;-75
2023/11/16 03:01:12;;;;;;;1.98;1.88;;;6.30;99.90;;;;;;5096800;28;20204;-75
2023/11/16 03:03:40;;;;;;;2.00;1.90;;;6.30;99.90;;;;;;5103916;27;20671;-74
2023/11/16 03:06:09;;;;;;;1.80;1.73;;;6.30;99.90;;;;;;5098052;27;20205;-73
2023/11/16 03:08:36;;;;;;;2.00;1.90;;;6.20;99.90;;;;;;5102809;28;20312;-74
2023/11/16 03:11:05;;;;;;;1.90;1.80;;;6.20;99.90;;;;;;5098424;27;20204;-74
2023/11/16 03:13:32;;;;;;;1.98;1.88;;;6.20;99.90;;;;;;5096449;28;20214;-75
2023/11/16 03:16:04;;;;;;;2.08;1.98;;;6.10;99.90;;;;;;5101026;27;20249;-75
2023/11/16 03:18:31;;;;;;;2.05;1.95;;;6.20;99.90;;;;;;5098824;27;20212;-75
2023/11/16 03:20:58;;;;;;;1.65;1.65;;;6.10;99.90;;;;;;5099787;27;20780;-75
2023/11/16 03:23:24;;;;;;;1.90;1.80;;;6.10;99.90;;;;;;5099015;28;20229;-75
2023/11/16 03:25:53;;;;;;;1.92;1.83;;;6.10;99.90;;;;;;5102527;27;20193;-76
2023/11/16 03:28:20;;;;;;;2.20;2.00;;;6.10;99.90;;;;;;5098430;28;20213;-75
2023/11/16 03:30:47;;;;;;;2.10;2.00;;;6.20;99.90;;;;;;5102829;27;20494;-74
2023/11/16 03:33:16;;;;;;;2.05;1.95;;;6.20;99.90;;;;;;5098787;28;20221;-75
2023/11/16 03:35:48;;;;;;;1.83;1.80;;;6.20;99.90;;;;;;5098555;27;20647;-75
2023/11/16 03:38:18;;;;;;;2.28;2.17;;;6.20;99.90;;;;;;5097819;28;20193;-75
2023/11/16 03:40:46;;;;;;;1.80;1.70;;;6.20;99.90;;;;;;5094558;28;20316;-74
2023/11/16 03:43:13;;;;;;;1.75;1.75;;;6.20;99.90;;;;;;5099082;28;20455;-75
2023/11/16 03:45:40;;;;;;;1.80;1.70;;;6.20;99.90;;;;;;5096782;28;20314;-74
2023/11/16 03:48:09;;;;;;;1.90;1.80;;;6.20;99.90;;;;;;5100969;28;20228;-74
2023/11/16 03:50:39;;;;;;;2.03;1.92;;;6.20;99.90;;;;;;5098456;28;20213;-74
2023/11/16 03:53:06;;;;;;;1.92;1.83;;;6.20;99.90;;;;;;5101909;28;20244;-74
2023/11/16 03:55:33;;;;;;;2.20;2.10;;;6.10;99.90;;;;;;5097208;28;20200;-76
2023/11/16 03:58:00;;;;;;;1.83;1.73;;;6.10;99.90;;;;;;5100794;28;20208;-75
2023/11/16 04:00:27;;;;;;;2.10;2.00;;;6.10;99.90;;;;;;5098389;28;20196;-75
2023/11/16 04:02:58;;;;;;;2.10;2.00;;;6.00;99.90;;;;;;5099223;28;20367;-75
2023/11/16 04:05:26;;;;;;;2.50;2.40;;;6.00;99.90;;;;;;5100334;28;20196;-76
2023/11/16 04:07:55;;;;;;;2.10;2.00;;;6.00;99.90;;;;;;5096630;28;20214;-75
2023/11/16 04:10:21;;;;;;;1.92;1.83;;;6.10;99.90;;;;;;5098295;28;20814;-75
2023/11/16 04:12:48;;;;;;;2.17;2.08;;;6.10;99.90;;;;;;5100736;28;20221;-76
2023/11/16 04:15:15;;;;;;;2.58;2.40;;;6.10;99.90;;;;;;5096148;28;20250;-75
2023/11/16 04:17:43;;;;;;;2.10;2.00;;;6.10;99.90;;;;;;5100142;28;20280;-75
2023/11/16 04:20:11;;;;;;;2.17;1.90;;;6.10;99.90;;;;;;5097767;28;20622;-76
2023/11/16 04:22:39;;;;;;;2.00;1.90;;;6.10;99.90;;;;;;5095327;28;20611;-75
2023/11/16 04:25:17;;;;;;;2.20;2.10;;;6.10;99.90;;;;;;5101310;28;20219;-75
2023/11/16 04:27:45;;;;;;;2.10;2.00;;;6.10;99.90;;;;;;5101634;27;20233;-75
2023/11/16 04:30:14;;;;;;;2.10;2.00;;;6.10;99.90;;;;;;5102499;27;20275;-74
2023/11/16 04:32:42;;;;;;;2.35;2.25;;;6.00;99.90;;;;;;5102149;27;20301;-74
2023/11/16 04:35:10;;;;;;;2.20;2.10;;;6.00;99.90;;;;;;5102756;28;20189;-76
2023/11/16 04:37:38;;;;;;;2.22;2.13;;;6.00;99.90;;;;;;5101818;28;20711;-76
2023/11/16 04:40:09;;;;;;;1.88;1.80;;;5.90;99.90;;;;;;5102866;28;20291;-75
2023/11/16 04:42:39;;;;;;;1.88;1.77;;;5.90;99.90;;;;;;5100908;27;20220;-76
2023/11/16 04:45:07;;;;;;;2.10;2.00;;;5.90;99.90;;;;;;5106183;27;20196;-74
2023/11/16 04:47:34;;;;;;;1.88;1.88;;;5.90;99.90;;;;;;5105428;27;20201;-75
2023/11/16 04:50:05;;;;;;;2.47;2.38;;;5.90;99.90;;;;;;5101427;28;20205;-77
2023/11/16 04:52:33;;;;;;;2.13;2.03;;;5.90;99.90;;;;;;5108005;27;20212;-74
2023/11/16 04:55:00;;;;;;;2.10;2.00;;;5.80;99.90;;;;;;5106555;28;20296;-74
2023/11/16 04:57:28;;;;;;;2.10;2.00;;;5.80;99.90;;;;;;5102012;28;20279;-75
2023/11/16 04:59:56;;;;;;;2.20;2.10;;;5.80;99.90;;;;;;5102634;27;20193;-73
2023/11/16 05:02:23;;;;;;;2.00;1.90;;;5.80;99.90;;;;;;5100215;28;20876;-74
2023/11/16 05:04:50;;;;;;;2.40;2.30;;;5.80;99.90;;;;;;5100865;27;20682;-75
2023/11/16 05:07:17;;;;;;;2.03;1.95;;;5.70;99.90;;;;;;5101229;27;20792;-74
2023/11/16 05:09:44;;;;;;;1.98;1.88;;;5.70;99.90;;;;;;5099865;27;20208;-74
2023/11/16 05:12:11;;;;;;;2.00;1.90;;;5.60;99.90;;;;;;5097972;27;20221;-74
2023/11/16 05:14:38;;;;;;;2.05;1.95;;;5.50;99.90;;;;;;5100334;28;20667;-75
2023/11/16 05:17:08;;;;;;;1.98;1.88;;;5.50;99.90;;;;;;5100700;27;20254;-76
2023/11/16 05:19:35;;;;;;;1.95;1.90;;;5.40;99.90;;;;;;5100314;28;20215;-75
2023/11/16 05:22:02;;;;;;;1.98;1.92;;;5.50;99.90;;;;;;5102817;27;20265;-74
2023/11/16 05:24:29;;;;;;;2.30;2.20;;;5.40;99.90;;;;;;5098977;28;20795;-74
2023/11/16 05:27:01;;;;;;;2.10;2.00;;;5.40;99.90;;;;;;5099558;27;20257;-75
2023/11/16 05:29:29;;;;;;;1.85;1.80;;;5.40;99.90;;;;;;5100349;27;20212;-74
2023/11/16 05:31:57;;;;;;;2.00;1.90;;;5.40;99.90;;;;;;5102443;27;20614;-74
2023/11/16 05:34:27;;;;;;;2.13;2.03;;;5.40;99.90;;;;;;5101049;27;20196;-74
2023/11/16 05:36:55;;;;;;;2.20;2.10;;;5.40;99.90;;;;;;5100244;28;20189;-75
2023/11/16 05:39:22;;;;;;;1.75;1.75;;;5.40;99.90;;;;;;5099299;27;20709;-74
2023/11/16 05:41:49;;;;;;;2.03;1.92;;;5.40;99.90;;;;;;5100969;27;20209;-74
2023/11/16 05:44:17;;;;;;;2.30;2.20;;;5.40;99.90;;;;;;5098759;28;20224;-75
2023/11/16 05:46:44;;;;;;;2.30;2.10;;;5.30;99.90;;;;;;5101054;27;20229;-75
2023/11/16 05:49:11;;;;;;;2.20;2.10;;;5.30;99.90;;;;;;5096793;28;20262;-76
2023/11/16 05:51:39;;;;;;;2.00;1.90;;;5.30;99.90;;;;;;5100582;27;21094;-75
2023/11/16 05:54:08;;;;;;;1.92;1.83;;;5.30;99.90;;;;;;5100264;27;20196;-75
2023/11/16 05:56:40;;;;;;;2.25;2.15;;;5.20;99.90;;;;;;5097333;27;20728;-74
2023/11/16 05:59:08;;;;;;;2.00;1.90;;;5.20;99.90;;;;;;5101804;27;20227;-73
2023/11/16 06:01:36;;;;;;;2.40;2.20;;;5.20;99.90;;;;;;5104830;27;20210;-75
2023/11/16 06:04:03;;;;;;;2.17;2.08;;;5.20;99.90;;;;;;5100177;27;20334;-76
2023/11/16 06:06:30;;;;;;;2.38;2.20;;;5.20;99.90;;;;;;5097526;27;20541;-75
2023/11/16 06:08:58;;;;;;;2.38;2.28;;;5.20;99.90;;;;;;5100038;27;20194;-76
2023/11/16 06:11:25;;;;;;;2.03;1.92;;;5.20;99.90;;;;;;5097727;27;20252;-76
2023/11/16 06:13:54;;;;;;;2.20;2.10;;;5.10;99.90;;;;;;5097730;27;20236;-75
2023/11/16 06:16:22;;;;;;;2.55;2.40;;;5.10;99.90;;;;;;5102623;27;20245;-75
2023/11/16 06:18:50;;;;;;;2.25;2.15;;;5.10;99.90;;;;;;5094273;27;20205;-76
2023/11/16 06:21:18;;;;;;;2.20;2.10;;;5.10;99.90;;;;;;5103086;27;20664;-76
2023/11/16 06:23:45;;;;;;;2.20;2.10;;;5.10;99.90;;;;;;5099445;28;20622;-74
2023/11/16 06:26:13;;;;;;;2.17;2.08;;;5.10;99.90;;;;;;5099738;27;20263;-73
2023/11/16 06:28:40;;;;;;;2.30;2.20;;;5.10;99.90;;;;;;5099925;28;20280;-75
2023/11/16 06:31:07;;;;;;;2.20;2.10;;;5.10;99.90;;;;;;5100266;27;20860;-74
2023/11/16 06:33:34;;;;;;;2.13;2.03;;;5.10;99.90;;;;;;5098840;28;20210;-74
2023/11/16 06:36:02;;;;;;;2.30;2.20;;;5.10;99.90;;;;;;5102547;27;20212;-74
2023/11/16 06:38:30;;;;;;;2.22;2.13;;;5.10;99.90;;;;;;5094427;27;20686;-75
2023/11/16 06:40:57;;;;;;;2.10;2.00;;;5.10;99.90;;;;;;5098232;27;20402;-74
2023/11/16 06:43:26;;;;;;;2.20;2.10;;;5.10;99.90;;;;;;5101988;27;20256;-73
2023/11/16 06:45:55;;;;;;;2.30;2.20;;;5.10;99.90;;;;;;5096470;28;20254;-74
2023/11/16 06:48:21;;;;;;;3.20;2.20;;;5.10;99.90;;;;;;5102079;27;20200;-74
2023/11/16 06:50:50;;;;;;;2.33;2.15;;;5.10;99.90;;;;;;5099512;27;20309;-74
2023/11/16 06:53:17;;;;;;;3.40;2.20;;;5.10;99.90;;;;;;5095522;28;20225;-75
2023/11/16 06:55:44;;;;;;;2.42;2.33;;;5.10;99.90;;;;;;5098397;27;20265;-74
2023/11/16 06:58:12;;;;;;;2.60;2.50;;;5.10;99.90;;;;;;5099122;27;20207;-75
2023/11/16 07:00:41;;;;;;;2.40;2.30;;;5.20;99.90;;;;;;5096175;27;20309;-75
2023/11/16 07:03:09;;;;;;;2.38;2.28;;;5.20;99.90;;;;;;5097181;27;20213;-75
2023/11/16 07:05:36;;;;;;;2.53;2.33;;;5.30;99.90;;;;;;5095459;28;20208;-76
2023/11/16 07:08:04;;;;;;;2.47;2.38;;;5.30;99.90;;;;;;5099529;28;20201;-76
2023/11/16 07:10:31;;;;;;;2.60;2.50;;;5.30;99.90;;;;;;5101495;28;20282;-74
2023/11/16 07:12:58;;;;;;;2.35;2.25;;;5.40;99.90;;;;;;5101324;27;20217;-74
2023/11/16 07:15:25;;;;;;;2.55;2.45;;;5.40;99.90;;;;;;5098799;28;20197;-74
2023/11/16 07:17:53;;;;;;;3.15;2.95;;;5.50;99.90;;;;;;5100438;27;20197;-75
2023/11/16 07:20:21;;;;;;;2.40;2.30;;;5.60;99.90;;;;;;5097388;27;20208;-74
2023/11/16 07:22:48;;;;;;;2.90;2.67;;;5.60;99.90;;;;;;5098287;27;20220;-73
2023/11/16 07:25:20;;;;;;;2.30;2.20;;;5.60;99.90;;;;;;5102620;27;20679;-75
2023/11/16 07:27:47;;;;;;;2.50;2.40;;;5.60;99.90;;;;;;5099988;27;20205;-74
2023/11/16 07:30:15;;;;;;;2.38;2.28;;;5.70;99.90;;;;;;5096161;27;20317;-74
2023/11/16 07:32:42;;;;;;;2.88;2.78;;;5.70;99.90;;;;;;5096564;28;20224;-75
2023/11/16 07:35:15;;;;;;;2.70;2.50;;;5.80;99.90;;;;;;5102106;27;20799;-74
2023/11/16 07:37:44;;;;;;;2.90;2.70;;;5.80;99.90;;;;;;5099037;28;20278;-75
2023/11/16 07:40:11;;;;;;;2.90;2.70;;;5.80;99.90;;;;;;5099744;28;20756;-74
2023/11/16 07:42:39;;;;;;;2.60;2.30;;;5.80;99.90;;;;;;5099896;28;20758;-74
2023/11/16 07:45:09;;;;;;;2.60;2.47;;;5.90;99.90;;;;;;5096078;28;20204;-74
2023/11/16 07:47:37;;;;;;;2.65;2.45;;;6.20;99.90;;;;;;5091363;28;20224;-75
2023/11/16 07:50:07;;;;;;;2.60;2.50;;;7.10;99.90;;;;;;5094011;28;20209;-75
2023/11/16 07:52:42;;;;;;;2.72;2.60;;;8.30;99.90;;;;;;5096826;28;20339;-75
2023/11/16 07:55:10;;;;;;;2.33;2.13;;;9.30;99.90;;;;;;5093420;28;20200;-76
2023/11/16 07:57:38;;;;;;;3.22;2.40;;;10.20;99.90;;;;;;5094367;28;20292;-75
2023/11/16 08:00:16;;;;;;;2.30;2.20;;;10.90;99.90;;;;;;5090245;28;20208;-75
2023/11/16 08:05:26;;;;;;;3.20;3.00;;;12.10;99.90;;;;;;5091903;27;20201;-75
2023/11/16 08:07:55;;;;;;;3.45;3.15;;;12.10;99.90;;;;;;5094980;27;20193;-74
2023/11/16 08:10:26;;;;;;;3.55;3.17;;;11.80;99.90;;;;;;5094746;27;20287;-75
2023/11/16 08:12:54;;;;;;;2.88;2.67;;;11.50;99.90;;;;;;5103447;27;20219;-76
2023/11/16 08:15:24;;;;;;;2.65;2.50;;;11.30;99.90;;;;;;5096134;27;20691;-75
2023/11/16 08:17:53;;;;;;;4.22;2.70;;;11.40;99.90;;;;;;5098097;27;20833;-76
2023/11/16 08:20:23;;;;;;;2.95;2.30;;;11.80;99.90;;;;;;5098401;27;20252;-75
2023/11/16 08:22:51;;;;;;;3.03;2.75;;;12.10;99.90;;;;;;5098662;27;20804;-75
2023/11/16 08:25:22;;;;;;;2.80;2.60;;;12.40;99.90;;;;;;5102838;28;20311;-75
2023/11/16 08:27:50;;;;;;;2.72;2.53;;;12.60;99.90;;;;;;5097631;28;20280;-77
2023/11/16 08:30:17;;;;;;;4.35;2.42;;;12.60;99.90;;;;;;5100235;28;20201;-76
2023/11/16 08:32:45;;;;;;;2.63;2.42;;;12.50;99.90;;;;;;5101704;28;20274;-76
2023/11/16 08:35:13;;;;;;;3.08;2.88;;;12.20;99.90;;;;;;5095850;27;20257;-75
2023/11/16 08:37:42;;;;;;;2.65;2.40;;;12.10;99.90;;;;;;5096177;27;20265;-76
2023/11/16 08:40:12;;;;;;;2.97;2.70;;;12.20;99.90;;;;;;5100865;27;20217;-76
2023/11/16 08:42:42;;;;;;;2.70;2.50;;;12.50;99.90;;;;;;5099409;27;20217;-76
2023/11/16 08:45:18;;;;;;;3.35;3.05;;;13.00;99.90;;;;;;5098238;27;20220;-75
2023/11/16 08:47:46;;;;;;;2.95;2.47;;;13.60;99.90;;;;;;5097345;28;20193;-76
2023/11/16 08:50:16;;;;;;;2.78;2.58;;;14.00;99.90;;;;;;5097386;27;20288;-77
2023/11/16 08:52:45;;;;;;;2.70;2.50;;;14.00;99.90;;;;;;5100425;27;20217;-75
2023/11/16 08:55:13;;;;;;;2.67;2.47;;;13.90;99.90;;;;;;5098691;27;20208;-77
2023/11/16 08:57:42;;;;;;;2.67;2.40;;;13.80;99.90;;;;;;5097050;28;20304;-77
2023/11/16 09:00:28;;;;;;;2.55;2.35;;;13.90;99.90;;;;;;5098878;27;20814;-75
2023/11/16 09:02:55;;;;;;;2.70;2.50;;;13.60;99.90;;;;;;5098179;28;20204;-75
2023/11/16 09:05:24;;;;;;;3.10;2.80;;;13.00;99.90;;;;;;5097910;27;20483;-76
2023/11/16 09:07:52;;;;;;;3.17;2.60;;;12.30;99.90;;;;;;5098828;27;20300;-76
2023/11/16 09:10:20;;;;;;;2.50;2.30;;;11.80;99.90;;;;;;5093775;27;20208;-75
2023/11/16 09:12:49;;;;;;;2.92;2.70;;;11.40;99.90;;;;;;5096199;27;20293;-75
2023/11/16 09:15:17;;;;;;;3.95;2.58;;;11.00;99.90;;;;;;5097277;27;20737;-75
2023/11/16 09:17:45;;;;;;;2.58;2.38;;;10.80;99.90;;;;;;5100271;27;20288;-77
2023/11/16 09:20:13;;;;;;;3.15;2.85;;;10.70;99.90;;;;;;5097647;27;20202;-75
2023/11/16 09:22:42;;;;;;;3.05;2.75;;;10.80;99.90;;;;;;5097818;27;20889;-76
2023/11/16 09:25:15;;;;;;;4.03;3.10;;;11.10;99.90;;;;;;5097734;27;20614;-76
2023/11/16 09:27:42;;;;;;;5.72;3.63;;;11.20;99.90;;;;;;5095787;27;21074;-75
2023/11/16 09:30:14;;;;;;;2.85;2.65;;;11.00;99.90;;;;;;5097825;27;20272;-75
2023/11/16 09:32:42;;;;;;;4.15;3.13;;;10.80;99.90;;;;;;5096429;27;20217;-76
2023/11/16 09:35:14;;;;;;;3.67;3.28;;;10.70;99.90;;;;;;5094932;27;20820;-75
2023/11/16 09:37:45;;;;;;;3.75;3.28;;;10.50;99.90;;;;;;5093036;27;20202;-75
2023/11/16 09:40:14;;;;;;;4.25;3.20;;;10.50;99.90;;;;;;5096780;27;20201;-75
2023/11/16 09:42:44;;;;;;;3.28;2.97;;;10.40;99.90;;;;;;5099675;27;20305;-75
2023/11/16 09:45:15;;;;;;;4.07;3.00;;;10.30;99.90;;;;;;5099850;27;20288;-75
2023/11/16 09:47:45;;;;;;;3.03;2.80;;;10.00;99.90;;;;;;5098025;27;20257;-75
2023/11/16 09:50:14;;;;;;;4.60;2.97;;;9.80;99.90;;;;;;5099533;27;20205;-76
2023/11/16 09:52:41;;;;;;;2.72;2.50;;;9.60;99.90;;;;;;5097945;27;20956;-75
2023/11/16 09:55:10;;;;;;;3.15;2.83;;;9.50;99.90;;;;;;5095550;27;20216;-74
2023/11/16 09:57:41;;;;;;;3.10;2.90;;;9.40;99.90;;;;;;5099409;27;20745;-76
2023/11/16 10:00:15;;;;;;;3.28;2.97;;;9.40;99.90;;;;;;5097470;27;20227;-74
2023/11/16 10:02:45;;;;;;;2.97;2.78;;;9.50;99.90;;;;;;5093682;27;20216;-74
2023/11/16 10:05:27;;;;;;;3.00;2.70;;;9.50;99.90;;;;;;5097170;27;20209;-74
2023/11/16 10:07:56;;;;;;;2.88;2.67;;;9.50;99.90;;;;;;5095734;27;20193;-75
2023/11/16 10:10:28;;;;;;;2.78;2.58;;;9.50;99.90;;;;;;5095620;27;20258;-74
2023/11/16 10:12:56;;;;;;;2.80;2.60;;;9.60;99.90;;;;;;5097845;27;20311;-75
2023/11/16 10:15:25;;;;;;;2.95;2.75;;;9.40;99.90;;;;;;5097421;27;20197;-75
2023/11/16 10:17:55;;;;;;;3.65;2.83;;;9.30;99.90;;;;;;5093758;28;20205;-75
2023/11/16 10:20:23;;;;;;;3.45;3.15;;;9.40;99.90;;;;;;5095146;27;20201;-75
2023/11/16 10:22:53;;;;;;;2.88;2.55;;;9.60;99.90;;;;;;5096180;27;20303;-74
2023/11/16 10:25:23;;;;;;;3.22;2.97;;;9.60;99.90;;;;;;5093667;27;20294;-74
2023/11/16 10:27:50;;;;;;;3.05;2.83;;;9.60;99.90;;;;;;5096004;27;20197;-73
2023/11/16 10:30:18;;;;;;;3.00;2.80;;;9.80;99.90;;;;;;5095551;27;20205;-75
2023/11/16 10:32:47;;;;;;;3.75;2.97;;;10.00;99.90;;;;;;5094648;27;20224;-75
2023/11/16 10:35:16;;;;;;;3.35;3.08;;;10.40;99.90;;;;;;5097048;27;20201;-74
2023/11/16 10:37:44;;;;;;;3.55;3.22;;;10.80;99.90;;;;;;5092854;27;20197;-75
2023/11/16 10:40:11;;;;;;;3.95;3.60;;;10.90;99.90;;;;;;5095060;27;20197;-75
2023/11/16 10:42:41;;;;;;;3.42;3.13;;;10.80;99.90;;;;;;5095261;27;20227;-76
2023/11/16 10:45:14;;;;;;;3.03;2.70;;;10.90;99.90;;;;;;5093272;27;20204;-75
2023/11/16 10:47:43;;;;;;;2.42;2.30;;;10.90;99.90;;;;;;5097118;27;20383;-75
2023/11/16 10:50:15;;;;;;;2.67;2.50;;;10.70;99.90;;;;;;5096245;27;20301;-76
2023/11/16 10:52:45;;;;;;;2.70;2.50;;;10.60;99.90;;;;;;5095536;27;20225;-75
2023/11/16 10:55:19;;;;;;;2.70;2.50;;;10.40;99.90;;;;;;5096339;28;20197;-75
2023/11/16 10:57:47;;;;;;;3.22;2.65;;;10.20;99.90;;;;;;5097451;28;20196;-75
2023/11/16 11:00:17;;;;;;;2.90;2.70;;;10.10;99.90;;;;;;5097367;27;20207;-75
2023/11/16 11:02:46;;;;;;;2.67;2.47;;;10.00;99.90;;;;;;5093357;27;20296;-75
2023/11/16 11:05:21;;;;;;;3.08;2.83;;;10.00;99.90;;;;;;5095680;27;20198;-75
2023/11/16 11:07:52;;;;;;;5.05;3.25;;;10.10;99.90;;;;;;5093828;27;20196;-75
2023/11/16 11:10:23;;;;;;;2.80;2.60;;;10.20;99.90;;;;;;5094334;27;20200;-74
2023/11/16 11:12:50;;;;;;;5.07;2.63;;;10.30;99.90;;;;;;5094495;27;20224;-74
2023/11/16 11:15:29;;;;;;;2.80;2.60;;;10.30;99.90;;;;;;5087097;28;20292;-74
2023/11/16 11:17:56;;;;;;;2.58;2.38;;;10.30;99.90;;;;;;5094815;27;20236;-74
2023/11/16 11:20:37;;;;;;;3.55;2.95;;;10.20;99.90;;;;;;5092573;28;20209;-74
2023/11/16 11:23:07;;;;;;;3.20;3.00;;;10.00;99.90;;;;;;5091995;27;20220;-74
2023/11/16 11:25:34;;;;;;;3.60;3.20;;;9.80;99.90;;;;;;5095378;27;21778;-74
2023/11/16 11:28:01;;;;;;;3.00;2.70;;;9.80;99.90;;;;;;5095272;28;20204;-75
2023/11/16 11:30:28;;;;;;;3.53;3.20;;;9.70;99.90;;;;;;5097161;27;20859;-74
2023/11/16 11:33:01;;;;;;;6.22;3.30;;;9.70;99.90;;;;;;5096372;27;20221;-74
2023/11/16 11:35:34;;;;;;;2.97;2.78;;;9.70;99.90;;;;;;5091103;28;20201;-74
2023/11/16 11:38:03;;;;;;;3.47;3.25;;;9.80;99.90;;;;;;5093874;28;20197;-73
2023/11/16 11:40:30;;;;;;;4.13;2.70;;;9.80;99.90;;;;;;5089387;28;20232;-75
2023/11/16 11:42:58;;;;;;;3.13;2.83;;;9.80;99.90;;;;;;5092563;28;20221;-75
2023/11/16 11:45:29;;;;;;;3.08;2.78;;;9.90;99.90;;;;;;5091013;28;20295;-76
2023/11/16 11:47:58;;;;;;;3.30;2.53;;;9.90;99.90;;;;;;5095289;28;20208;-75
2023/11/16 11:50:27;;;;;;;3.05;2.75;;;9.80;99.90;;;;;;5096421;28;20205;-75
2023/11/16 11:52:55;;;;;;;2.83;2.58;;;9.80;99.90;;;;;;5096577;28;20863;-75
2023/11/16 11:55:27;;;;;;;3.00;2.80;;;9.80;99.90;;;;;;5093495;28;20288;-74
2023/11/16 11:57:54;;;;;;;2.67;2.47;;;9.70;99.90;;;;;;5092546;28;20200;-75
2023/11/16 12:00:23;;;;;;;3.55;2.83;;;9.70;99.90;;;;;;5090016;28;20255;-75
2023/11/16 12:02:50;;;;;;;2.97;2.78;;;9.60;99.90;;;;;;5098458;28;20261;-74
2023/11/16 12:05:18;;;;;;;2.70;2.50;;;9.50;99.90;;;;;;5096700;28;20197;-74
2023/11/16 12:07:56;;;;;;;2.80;2.60;;;9.50;99.90;;;;;;5096161;28;20208;-74
2023/11/16 12:10:24;;;;;;;2.97;2.70;;;9.50;99.90;;;;;;5096669;28;20340;-74
2023/11/16 12:12:56;;;;;;;2.85;2.65;;;9.60;99.90;;;;;;5099408;28;20307;-74
2023/11/16 12:15:23;;;;;;;2.90;2.67;;;9.60;99.90;;;;;;5094617;28;20201;-74
2023/11/16 12:17:51;;;;;;;3.42;3.17;;;9.70;99.90;;;;;;5092861;28;20204;-75
2023/11/16 12:20:18;;;;;;;3.60;3.30;;;9.90;99.90;;;;;;5096455;28;20832;-75
2023/11/16 12:22:45;;;;;;;3.47;3.17;;;10.00;99.90;;;;;;5091908;28;20297;-74
2023/11/16 12:25:13;;;;;;;3.40;3.10;;;10.10;99.90;;;;;;5091471;28;20990;-75
2023/11/16 12:27:42;;;;;;;3.67;3.38;;;10.10;99.90;;;;;;5098305;28;20209;-76
2023/11/16 12:30:17;;;;;;;3.30;3.10;;;10.20;99.90;;;;;;5095733;28;20890;-74
2023/11/16 12:32:45;;;;;;;3.63;3.33;;;10.10;99.90;;;;;;5093723;28;20227;-74
2023/11/16 12:35:14;;;;;;;3.60;3.30;;;10.20;99.90;;;;;;5093305;28;20214;-74
2023/11/16 12:37:42;;;;;;;3.80;3.40;;;10.20;99.90;;;;;;5090926;28;20208;-74
2023/11/16 12:40:17;;;;;;;4.25;3.00;;;10.20;99.90;;;;;;5102308;28;20691;-75
2023/11/16 12:42:44;;;;;;;3.60;3.30;;;10.20;99.90;;;;;;5095272;28;20224;-73
2023/11/16 12:45:13;;;;;;;3.17;2.97;;;10.10;99.90;;;;;;5098152;28;20300;-75
2023/11/16 12:47:40;;;;;;;2.55;2.40;;;10.00;99.90;;;;;;5093484;28;20205;-75
2023/11/16 12:50:09;;;;;;;2.92;2.72;;;9.90;99.90;;;;;;5097615;27;20670;-74
2023/11/16 12:52:36;;;;;;;2.95;2.75;;;9.80;99.90;;;;;;5095748;27;20277;-75
2023/11/16 12:55:09;;;;;;;3.20;2.90;;;9.80;99.90;;;;;;5096967;27;20306;-74
2023/11/16 12:57:37;;;;;;;2.65;2.45;;;9.80;99.90;;;;;;5099800;27;20197;-74
2023/11/16 13:00:08;;;;;;;2.95;2.72;;;10.00;99.90;;;;;;5098377;27;20212;-74
2023/11/16 13:02:37;;;;;;;3.00;2.80;;;10.00;99.90;;;;;;5093501;28;20219;-74
2023/11/16 13:05:06;;;;;;;3.22;2.92;;;10.00;99.90;;;;;;5096417;28;20204;-74